Time;durP1;ratioP1;P1;durP2;ratioP2;P2;SDS_P1;SDS_P2;PMS_P1;PMS_P2;Temp;Humidity;BMP_temperature;BMP_pressure;BME280_temperature;BME280_humidity;BME280_pressure;Samples;Min_cycle;Max_cycle;Signal;HPM_P1;HPM_P2
2021/11/07 00:00:29;;;;;;;;;;;20.70;61.90;;;;;;5033239;28;1346;-70
2021/11/07 00:05:32;;;;;;;;;;;20.80;62.00;;;;;;5034275;28;1319;-70
2021/11/07 00:10:48;;;;;;;;;;;20.70;62.00;;;;;;5033768;28;1910;-70
2021/11/07 00:13:22;;;;;;;;;;;20.70;62.00;;;;;;5033699;28;1397;-70
2021/11/07 00:15:47;;;;;;;;;;;20.70;62.00;;;;;;5033527;28;1271;-70
2021/11/07 00:18:19;;;;;;;;;;;20.70;62.10;;;;;;5018471;28;1324;-70
2021/11/07 00:20:58;;;;;;;;;;;20.70;62.10;;;;;;5021562;28;1349;-71
2021/11/07 00:24:10;;;;;;;;;;;20.70;62.10;;;;;;5028489;28;1445;-70
2021/11/07 00:28:54;;;;;;;;;;;20.70;62.20;;;;;;5012296;28;1956;-70
2021/11/07 00:34:07;;;;;;;;;;;20.70;62.20;;;;;;5012782;28;1282;-71
2021/11/07 00:39:42;;;;;;;;;;;20.60;62.20;;;;;;5012399;28;1277;-70
2021/11/07 00:42:18;;;;;;;;;;;20.70;62.30;;;;;;5021273;28;1205;-70
2021/11/07 00:47:39;;;;;;;;;;;20.60;62.30;;;;;;5013790;28;1338;-70
2021/11/07 00:50:09;;;;;;;;;;;20.70;62.40;;;;;;5011797;28;1899;-70
2021/11/07 00:52:55;;;;;;;;;;;20.60;62.30;;;;;;5012863;28;1365;-70
2021/11/07 00:55:27;;;;;;;;;;;20.60;62.40;;;;;;4998602;28;1320;-70
2021/11/07 00:58:01;;;;;;;;;;;20.60;62.40;;;;;;5013136;28;1331;-70
2021/11/07 01:00:40;;;;;;;;;;;20.60;62.40;;;;;;5013005;28;1352;-71
2021/11/07 01:03:12;;;;;;;;;;;20.60;62.40;;;;;;4996759;28;1309;-70
2021/11/07 01:05:38;;;;;;;;;;;20.60;62.40;;;;;;5013028;28;1304;-70
2021/11/07 01:08:03;;;;;;;;;;;20.60;62.50;;;;;;4995965;28;1271;-70
2021/11/07 01:10:30;;;;;;;;;;;20.60;62.50;;;;;;5012837;28;1946;-70
2021/11/07 01:12:55;;;;;;;;;;;20.60;62.50;;;;;;5012606;28;1351;-70
2021/11/07 01:15:21;;;;;;;;;;;20.60;62.50;;;;;;5000274;28;1328;-70
2021/11/07 01:17:47;;;;;;;;;;;20.60;62.50;;;;;;5002929;28;1316;-70
2021/11/07 01:20:13;;;;;;;;;;;20.60;62.60;;;;;;5016387;28;1413;-70
2021/11/07 01:25:04;;;;;;;;;;;20.60;62.70;;;;;;5012590;28;1809;-70
2021/11/07 01:27:37;;;;;;;;;;;20.60;62.60;;;;;;4994690;28;1025;-71
2021/11/07 01:30:05;;;;;;;;;;;20.60;62.70;;;;;;5013019;28;1879;-70
2021/11/07 01:32:38;;;;;;;;;;;20.60;62.70;;;;;;5011991;28;1670;-70
2021/11/07 01:35:15;;;;;;;;;;;20.60;62.70;;;;;;5012748;28;1235;-70
2021/11/07 01:37:53;;;;;;;;;;;20.50;62.70;;;;;;4996984;28;1367;-70
2021/11/07 01:40:22;;;;;;;;;;;20.60;62.70;;;;;;4996602;28;1364;-70
2021/11/07 01:42:55;;;;;;;;;;;20.50;62.70;;;;;;5012237;28;1371;-70
2021/11/07 01:45:25;;;;;;;;;;;20.50;62.70;;;;;;5012236;28;1037;-70
2021/11/07 01:47:54;;;;;;;;;;;20.50;62.70;;;;;;5012764;28;1330;-71
2021/11/07 01:50:19;;;;;;;;;;;20.50;62.70;;;;;;4995503;28;1899;-70
2021/11/07 01:52:45;;;;;;;;;;;20.50;62.80;;;;;;5012106;28;1284;-71
2021/11/07 01:55:17;;;;;;;;;;;20.50;62.90;;;;;;5012563;28;1196;-70
2021/11/07 01:57:44;;;;;;;;;;;20.50;62.80;;;;;;5012342;28;1203;-70
2021/11/07 02:00:14;;;;;;;;;;;20.50;62.80;;;;;;4994840;28;1137;-70
2021/11/07 02:02:39;;;;;;;;;;;20.50;62.80;;;;;;4998254;28;1321;-70
2021/11/07 02:05:05;;;;;;;;;;;20.50;62.80;;;;;;4998489;28;1311;-69
2021/11/07 02:07:31;;;;;;;;;;;20.50;62.80;;;;;;5016219;28;1270;-70
2021/11/07 02:09:57;;;;;;;;;;;20.50;62.90;;;;;;4982831;28;1910;-70
2021/11/07 02:12:23;;;;;;;;;;;20.50;62.90;;;;;;4997658;28;1361;-70
2021/11/07 02:14:48;;;;;;;;;;;20.50;62.90;;;;;;5017037;28;1324;-70
2021/11/07 02:17:14;;;;;;;;;;;20.50;62.90;;;;;;5028225;28;1303;-70
2021/11/07 02:19:42;;;;;;;;;;;20.50;62.90;;;;;;5016268;28;1287;-69
2021/11/07 02:22:08;;;;;;;;;;;20.50;62.90;;;;;;5017475;28;1260;-70
2021/11/07 02:24:36;;;;;;;;;;;20.50;63.00;;;;;;5021653;28;1415;-69
2021/11/07 02:27:01;;;;;;;;;;;20.50;62.90;;;;;;5016064;28;1374;-70
2021/11/07 02:29:27;;;;;;;;;;;20.50;62.90;;;;;;5015584;28;1975;-70
2021/11/07 02:31:54;;;;;;;;;;;20.50;63.00;;;;;;5015284;28;1375;-70
2021/11/07 02:34:19;;;;;;;;;;;20.50;63.00;;;;;;5016148;28;1218;-70
2021/11/07 02:36:45;;;;;;;;;;;20.40;62.90;;;;;;5016208;28;1283;-70
2021/11/07 02:39:13;;;;;;;;;;;20.40;63.00;;;;;;5015779;28;1284;-70
2021/11/07 02:41:38;;;;;;;;;;;20.40;62.90;;;;;;5014816;28;1291;-70
2021/11/07 02:44:04;;;;;;;;;;;20.40;62.90;;;;;;4997777;28;1513;-70
2021/11/07 02:46:29;;;;;;;;;;;20.40;63.00;;;;;;4998796;28;1262;-70
2021/11/07 02:48:55;;;;;;;;;;;20.40;63.00;;;;;;5015384;28;1961;-70
2021/11/07 02:51:25;;;;;;;;;;;20.40;63.00;;;;;;5014971;28;1322;-70
2021/11/07 02:53:51;;;;;;;;;;;20.40;63.00;;;;;;4997662;28;1253;-70
2021/11/07 02:56:17;;;;;;;;;;;20.40;63.00;;;;;;4998070;28;1282;-70
2021/11/07 02:58:42;;;;;;;;;;;20.40;63.00;;;;;;5014924;28;1312;-70
2021/11/07 03:01:08;;;;;;;;;;;20.40;63.00;;;;;;5015232;28;1328;-70
2021/11/07 03:03:33;;;;;;;;;;;20.40;63.10;;;;;;5014701;28;1345;-69
2021/11/07 03:06:01;;;;;;;;;;;20.40;63.10;;;;;;5015422;28;1212;-70
2021/11/07 03:08:27;;;;;;;;;;;20.40;63.10;;;;;;5015251;28;1327;-70
2021/11/07 03:10:52;;;;;;;;;;;20.40;63.10;;;;;;5014805;28;1902;-70
2021/11/07 03:13:19;;;;;;;;;;;20.40;63.10;;;;;;5014646;28;1207;-71
2021/11/07 03:15:45;;;;;;;;;;;20.40;63.10;;;;;;5023794;28;1245;-71
2021/11/07 03:18:11;;;;;;;;;;;20.40;63.10;;;;;;5020232;28;1350;-70
2021/11/07 03:20:36;;;;;;;;;;;20.40;63.10;;;;;;5004470;28;1341;-70
2021/11/07 03:23:02;;;;;;;;;;;20.40;63.20;;;;;;4996783;28;1312;-70
2021/11/07 03:25:28;;;;;;;;;;;20.40;63.10;;;;;;5015095;28;1135;-70
2021/11/07 03:27:54;;;;;;;;;;;20.40;63.10;;;;;;4996884;28;1314;-70
2021/11/07 03:30:42;;;;;;;;;;;20.40;63.20;;;;;;5014576;28;1895;-70
2021/11/07 03:33:18;;;;;;;;;;;20.40;63.20;;;;;;5014381;28;1382;-70
2021/11/07 03:35:44;;;;;;;;;;;20.40;63.20;;;;;;5014470;28;1224;-70
2021/11/07 03:38:10;;;;;;;;;;;20.40;63.20;;;;;;5014658;28;1461;-70
2021/11/07 03:40:35;;;;;;;;;;;20.40;63.20;;;;;;4997016;28;1320;-70
2021/11/07 03:43:00;;;;;;;;;;;20.40;63.20;;;;;;5014163;28;1363;-69
2021/11/07 03:45:27;;;;;;;;;;;20.40;63.30;;;;;;4997411;28;1712;-70
2021/11/07 03:47:52;;;;;;;;;;;20.40;63.20;;;;;;4997229;28;1336;-70
2021/11/07 03:50:19;;;;;;;;;;;20.40;63.20;;;;;;4996557;28;1903;-70
2021/11/07 03:52:45;;;;;;;;;;;20.40;63.20;;;;;;5013822;28;1338;-70
2021/11/07 03:55:10;;;;;;;;;;;20.40;63.30;;;;;;4997015;28;1368;-70
2021/11/07 03:57:36;;;;;;;;;;;20.40;63.30;;;;;;5013446;28;1335;-70
2021/11/07 04:00:04;;;;;;;;;;;20.30;63.20;;;;;;5014585;28;1282;-69
2021/11/07 04:02:29;;;;;;;;;;;20.40;63.30;;;;;;5014148;28;1221;-70
2021/11/07 04:04:55;;;;;;;;;;;20.40;63.30;;;;;;5014301;28;1041;-70
2021/11/07 04:07:20;;;;;;;;;;;20.40;63.40;;;;;;5014057;28;1347;-70
2021/11/07 04:09:46;;;;;;;;;;;20.40;63.30;;;;;;5013854;28;1898;-70
2021/11/07 04:12:11;;;;;;;;;;;20.40;63.40;;;;;;5012880;28;1410;-70
2021/11/07 04:14:36;;;;;;;;;;;20.40;63.40;;;;;;5014196;28;1334;-70
2021/11/07 04:17:03;;;;;;;;;;;20.30;63.30;;;;;;5027295;28;1262;-69
2021/11/07 04:19:28;;;;;;;;;;;20.30;63.30;;;;;;5013700;28;1289;-70
2021/11/07 04:21:57;;;;;;;;;;;20.30;63.30;;;;;;5030564;28;1355;-70
2021/11/07 04:24:22;;;;;;;;;;;20.30;63.30;;;;;;5020006;28;1275;-70
2021/11/07 04:26:48;;;;;;;;;;;20.30;63.40;;;;;;5022738;28;1193;-70
2021/11/07 04:29:13;;;;;;;;;;;20.30;63.30;;;;;;4988905;28;1910;-69
2021/11/07 04:31:39;;;;;;;;;;;20.30;63.40;;;;;;5023483;28;1219;-69
2021/11/07 04:34:04;;;;;;;;;;;20.30;63.40;;;;;;5024666;28;1394;-70
2021/11/07 04:36:29;;;;;;;;;;;20.30;63.40;;;;;;5025601;28;1264;-71
2021/11/07 04:38:55;;;;;;;;;;;20.30;63.40;;;;;;5023406;28;1268;-70
2021/11/07 04:41:21;;;;;;;;;;;20.30;63.40;;;;;;5004671;28;1292;-69
2021/11/07 04:43:48;;;;;;;;;;;20.30;63.40;;;;;;5023178;28;1364;-68
2021/11/07 04:46:14;;;;;;;;;;;20.30;63.50;;;;;;5024609;28;1292;-70
2021/11/07 04:48:40;;;;;;;;;;;20.30;63.40;;;;;;5026065;28;1295;-69
2021/11/07 04:51:06;;;;;;;;;;;20.30;63.40;;;;;;5026252;28;1175;-69
2021/11/07 04:53:31;;;;;;;;;;;20.30;63.40;;;;;;5013229;28;1239;-70
2021/11/07 04:55:57;;;;;;;;;;;20.30;63.50;;;;;;5013339;28;1301;-70
2021/11/07 04:58:22;;;;;;;;;;;20.30;63.50;;;;;;5005426;28;1177;-69
2021/11/07 05:00:47;;;;;;;;;;;20.30;63.50;;;;;;5019888;28;1390;-69
2021/11/07 05:03:13;;;;;;;;;;;20.30;63.50;;;;;;5021435;28;1341;-70
2021/11/07 05:05:38;;;;;;;;;;;20.30;63.50;;;;;;5004775;28;1741;-69
2021/11/07 05:08:04;;;;;;;;;;;20.30;63.50;;;;;;5022910;28;1207;-71
2021/11/07 05:10:29;;;;;;;;;;;20.30;63.50;;;;;;5006044;28;1962;-69
2021/11/07 05:12:55;;;;;;;;;;;20.30;63.50;;;;;;5025416;28;1667;-69
2021/11/07 05:15:20;;;;;;;;;;;20.30;63.50;;;;;;5032166;28;1382;-69
2021/11/07 05:17:46;;;;;;;;;;;20.30;63.50;;;;;;5022692;28;1256;-69
2021/11/07 05:20:12;;;;;;;;;;;20.30;63.50;;;;;;5007212;28;1216;-69
2021/11/07 05:22:37;;;;;;;;;;;20.30;63.50;;;;;;5003138;28;1236;-68
2021/11/07 05:25:03;;;;;;;;;;;20.30;64.30;;;;;;5020976;28;1396;-68
2021/11/07 05:27:29;;;;;;;;;;;20.30;63.60;;;;;;5023247;28;1148;-68
2021/11/07 05:29:54;;;;;;;;;;;20.30;63.50;;;;;;5022114;28;1910;-69
2021/11/07 05:32:20;;;;;;;;;;;20.30;63.50;;;;;;5022085;28;1288;-69
2021/11/07 05:34:46;;;;;;;;;;;20.30;63.50;;;;;;5024314;28;1182;-69
2021/11/07 05:37:12;;;;;;;;;;;20.30;63.60;;;;;;5022330;28;1271;-69
2021/11/07 05:39:37;;;;;;;;;;;20.30;63.50;;;;;;5007064;28;1201;-70
2021/11/07 05:42:03;;;;;;;;;;;20.30;63.50;;;;;;5022109;28;1359;-69
2021/11/07 05:44:29;;;;;;;;;;;20.30;63.50;;;;;;5001559;28;1342;-69
2021/11/07 05:46:54;;;;;;;;;;;20.30;63.40;;;;;;5020870;28;1224;-70
2021/11/07 05:49:20;;;;;;;;;;;20.30;63.40;;;;;;5022083;28;1947;-71
2021/11/07 05:51:45;;;;;;;;;;;20.40;63.40;;;;;;5004221;28;1351;-70
2021/11/07 05:54:11;;;;;;;;;;;20.40;63.30;;;;;;5024663;28;1360;-68
2021/11/07 05:56:36;;;;;;;;;;;20.40;63.20;;;;;;5003150;28;1200;-71
2021/11/07 05:59:02;;;;;;;;;;;20.40;63.10;;;;;;5019628;28;1085;-68
2021/11/07 06:01:27;;;;;;;;;;;20.40;63.00;;;;;;5020400;28;1192;-67
2021/11/07 06:03:53;;;;;;;;;;;20.50;63.00;;;;;;5021114;28;1311;-68
2021/11/07 06:06:19;;;;;;;;;;;20.50;62.90;;;;;;5022374;28;1368;-68
2021/11/07 06:08:44;;;;;;;;;;;20.50;62.80;;;;;;5022674;28;1914;-68
2021/11/07 06:11:09;;;;;;;;;;;20.50;62.70;;;;;;5002038;28;1411;-68
2021/11/07 06:13:35;;;;;;;;;;;20.60;62.70;;;;;;5022142;28;1386;-68
2021/11/07 06:16:02;;;;;;;;;;;20.60;62.50;;;;;;5005679;28;1394;-69
2021/11/07 06:18:28;;;;;;;;;;;20.60;62.50;;;;;;5014742;28;1672;-69
2021/11/07 06:20:54;;;;;;;;;;;20.60;62.40;;;;;;5010081;28;2061;-67
2021/11/07 06:23:19;;;;;;;;;;;20.60;62.40;;;;;;5018080;28;2057;-68
2021/11/07 06:25:45;;;;;;;;;;;20.60;62.30;;;;;;5029955;28;1223;-70
2021/11/07 06:28:10;;;;;;;;;;;20.70;62.30;;;;;;5027043;28;1324;-66
2021/11/07 06:30:36;;;;;;;;;;;20.60;62.20;;;;;;5020219;28;1967;-69
2021/11/07 06:33:01;;;;;;;;;;;20.60;62.20;;;;;;4992955;28;1749;-69
2021/11/07 06:35:27;;;;;;;;;;;20.60;62.10;;;;;;5011005;28;1248;-68
2021/11/07 06:37:53;;;;;;;;;;;20.70;62.10;;;;;;5011614;28;1679;-69
2021/11/07 06:40:18;;;;;;;;;;;20.70;62.10;;;;;;5012097;28;1418;-68
2021/11/07 06:42:44;;;;;;;;;;;20.70;62.10;;;;;;5011873;28;1531;-67
2021/11/07 06:45:10;;;;;;;;;;;20.70;62.00;;;;;;5011597;28;977;-66
2021/11/07 06:47:35;;;;;;;;;;;20.70;62.00;;;;;;5012991;28;1454;-66
2021/11/07 06:50:01;;;;;;;;;;;20.70;62.00;;;;;;5025054;28;1906;-66
2021/11/07 06:52:28;;;;;;;;;;;20.70;61.90;;;;;;5017809;28;1353;-66
2021/11/07 06:54:54;;;;;;;;;;;20.70;61.90;;;;;;5010708;28;1651;-66
2021/11/07 06:57:19;;;;;;;;;;;20.70;61.90;;;;;;4999046;28;1801;-66
2021/11/07 06:59:46;;;;;;;;;;;20.80;61.90;;;;;;5002300;28;1358;-66
2021/11/07 07:02:12;;;;;;;;;;;20.70;61.90;;;;;;5013111;28;1627;-66
2021/11/07 07:04:38;;;;;;;;;;;20.70;61.80;;;;;;5013962;28;1217;-68
2021/11/07 07:07:03;;;;;;;;;;;20.80;61.90;;;;;;5013633;28;1588;-69
2021/11/07 07:09:32;;;;;;;;;;;20.80;61.80;;;;;;5013389;28;1894;-69
2021/11/07 07:12:10;;;;;;;;;;;20.80;61.80;;;;;;4995594;28;1329;-69
2021/11/07 07:14:41;;;;;;;;;;;20.80;61.80;;;;;;4995524;28;1683;-68
2021/11/07 07:23:35;;;;;;;;;;;20.80;61.80;;;;;;5032562;28;1643;-70
2021/11/07 07:25:42;;;;;;;;;;;20.80;61.80;;;;;;5007595;28;1602;-69
2021/11/07 07:28:20;;;;;;;;;;;20.80;61.70;;;;;;5022178;28;2121;-68
2021/11/07 07:33:35;;;;;;;;;;;20.80;61.70;;;;;;5032682;28;1506;-68
2021/11/07 07:36:00;;;;;;;;;;;20.80;61.70;;;;;;5019541;28;1675;-68
2021/11/07 07:38:25;;;;;;;;;;;20.80;61.70;;;;;;5014792;28;1394;-69
2021/11/07 07:40:51;;;;;;;;;;;20.90;61.60;;;;;;5014433;28;1130;-69
2021/11/07 07:43:17;;;;;;;;;;;20.90;61.50;;;;;;5012158;28;1719;-69
2021/11/07 07:45:42;;;;;;;;;;;21.00;61.40;;;;;;5032578;28;1391;-69
2021/11/07 07:48:08;;;;;;;;;;;21.00;61.30;;;;;;5032762;28;1382;-69
2021/11/07 07:50:37;;;;;;;;;;;21.10;61.20;;;;;;5032460;28;1955;-70
2021/11/07 07:53:02;;;;;;;;;;;21.20;61.00;;;;;;4996884;28;1010839;-70
2021/11/07 07:55:28;;;;;;;;;;;21.30;60.90;;;;;;5034868;23;2203;-67
2021/11/07 07:57:53;;;;;;;;;;;21.30;60.60;;;;;;5048175;28;2178;-67
2021/11/07 08:00:19;;;;;;;;;;;21.40;60.40;;;;;;5053932;28;1619;-67
2021/11/07 08:02:44;;;;;;;;;;;21.50;60.30;;;;;;5068999;28;1997;-67
2021/11/07 08:05:10;;;;;;;;;;;21.50;60.00;;;;;;5052325;28;1613;-66
2021/11/07 08:07:36;;;;;;;;;;;21.60;59.90;;;;;;5043075;28;1551;-66
2021/11/07 08:10:01;;;;;;;;;;;21.70;59.70;;;;;;5048444;28;1969;-67
2021/11/07 08:12:27;;;;;;;;;;;21.70;59.60;;;;;;5041828;28;1540;-67
2021/11/07 08:14:53;;;;;;;;;;;21.80;59.50;;;;;;5044534;28;1422;-66
2021/11/07 08:17:19;;;;;;;;;;;21.80;59.40;;;;;;5052682;28;1517;-67
2021/11/07 08:19:45;;;;;;;;;;;21.80;59.30;;;;;;5039772;28;1391;-67
2021/11/07 08:22:11;;;;;;;;;;;21.90;59.20;;;;;;5053999;28;1522;-67
2021/11/07 08:24:37;;;;;;;;;;;21.90;59.10;;;;;;5038518;28;1680;-67
2021/11/07 08:27:03;;;;;;;;;;;22.00;59.10;;;;;;5034293;28;1297;-67
2021/11/07 08:29:29;;;;;;;;;;;22.00;59.00;;;;;;5034279;28;1965;-67
2021/11/07 08:31:54;;;;;;;;;;;22.00;58.90;;;;;;5033970;28;1547;-67
2021/11/07 08:34:23;;;;;;;;;;;22.10;58.90;;;;;;5017003;28;1682;-67
2021/11/07 08:36:55;;;;;;;;;;;22.10;58.90;;;;;;5032781;28;1706;-67
2021/11/07 08:41:55;;;;;;;;;;;22.10;58.80;;;;;;5033784;28;1039;-67
2021/11/07 09:00:29;;;;;;;;;;;22.20;58.60;;;;;;5053588;28;1484;-66
2021/11/07 09:06:12;;;;;;;;;;;22.20;58.60;;;;;;5053611;28;1612;-66
2021/11/07 09:08:39;;;;;;;;;;;22.20;58.60;;;;;;5052606;28;1380;-67
2021/11/07 09:11:06;;;;;;;;;;;22.20;58.50;;;;;;5052807;28;1911;-66
2021/11/07 09:13:32;;;;;;;;;;;22.20;58.50;;;;;;5051106;28;1703;-66
2021/11/07 09:15:57;;;;;;;;;;;22.20;58.50;;;;;;5043818;28;1559;-66
2021/11/07 09:18:23;;;;;;;;;;;22.20;58.50;;;;;;5035066;28;1652;-66
2021/11/07 09:23:27;;;;;;;;;;;22.20;58.50;;;;;;5036840;28;1312;-67
2021/11/07 09:28:45;;;;;;;;;;;22.20;58.60;;;;;;5041223;28;1534;-66
2021/11/07 09:31:26;;;;;;;;;;;22.20;58.60;;;;;;5052715;28;1883;-67
2021/11/07 09:34:08;;;;;;;;;;;22.20;58.60;;;;;;5052164;28;1374;-67
2021/11/07 09:36:39;;;;;;;;;;;22.20;58.60;;;;;;5052225;28;1737;-67
2021/11/07 09:41:39;;;;;;;;;;;22.10;58.70;;;;;;5051318;28;1275;-67
2021/11/07 09:44:08;;;;;;;;;;;22.10;58.80;;;;;;5052984;28;1694;-67
2021/11/07 09:46:38;;;;;;;;;;;22.10;58.80;;;;;;5052937;28;1199;-67
2021/11/07 09:49:18;;;;;;;;;;;22.10;58.90;;;;;;5053063;28;1910;-67
2021/11/07 09:51:47;;;;;;;;;;;22.10;58.90;;;;;;5052734;28;1604;-67
2021/11/07 09:54:14;;;;;;;;;;;22.10;58.90;;;;;;5052805;28;1590;-67
2021/11/07 09:56:45;;;;;;;;;;;22.10;58.90;;;;;;5052553;28;1262;-68
2021/11/07 09:59:12;;;;;;;;;;;22.10;59.00;;;;;;5052918;28;1627;-67
2021/11/07 10:01:38;;;;;;;;;;;22.10;58.90;;;;;;5040634;28;1188;-67
2021/11/07 10:04:04;;;;;;;;;;;22.10;58.90;;;;;;5033279;28;1695;-67
2021/11/07 10:06:32;;;;;;;;;;;22.10;58.90;;;;;;5032776;28;1355;-67
2021/11/07 10:08:58;;;;;;;;;;;22.10;58.90;;;;;;5032795;28;1902;-67
2021/11/07 10:11:30;;;;;;;;;;;22.20;58.90;;;;;;5031106;28;1719;-67
2021/11/07 10:13:59;;;;;;;;;;;22.20;58.90;;;;;;5032774;28;1449;-67
2021/11/07 10:16:33;;;;;;;;;;;22.20;58.80;;;;;;5046115;28;1786;-68
2021/11/07 10:19:10;;;;;;;;;;;22.20;58.80;;;;;;5032638;28;1705;-67
2021/11/07 10:21:38;;;;;;;;;;;22.20;58.80;;;;;;5044556;28;1633;-67
2021/11/07 10:24:03;;;;;;;;;;;22.20;58.80;;;;;;5035582;28;1659;-67
2021/11/07 10:26:33;;;;;;;;;;;22.20;58.80;;;;;;5036426;28;1722;-67
2021/11/07 10:29:01;;;;;;;;;;;22.20;58.80;;;;;;5035296;28;1914;-68
2021/11/07 10:31:38;;;;;;;;;;;22.20;58.80;;;;;;5036075;28;1575;-68
2021/11/07 10:34:48;;;;;;;;;;;22.20;58.80;;;;;;5036615;28;1601;-67
2021/11/07 10:40:00;;;;;;;;;;;22.20;58.80;;;;;;5037776;28;1660;-67
2021/11/07 10:45:28;;;;;;;;;;;22.20;58.80;;;;;;5045474;28;1317;-67
2021/11/07 10:53:37;;;;;;;;;;;22.20;58.80;;;;;;5035580;28;1643;-67
2021/11/07 10:56:03;;;;;;;;;;;22.20;58.80;;;;;;5034527;28;1756;-67
2021/11/07 10:58:28;;;;;;;;;;;22.20;58.80;;;;;;5018354;28;1300;-67
2021/11/07 11:00:54;;;;;;;;;;;22.20;58.80;;;;;;5041521;28;1761;-68
2021/11/07 11:03:20;;;;;;;;;;;22.20;58.90;;;;;;5043591;28;1667;-67
2021/11/07 11:06:05;;;;;;;;;;;22.20;58.90;;;;;;5041554;28;1707;-68
2021/11/07 11:08:34;;;;;;;;;;;22.20;58.90;;;;;;5041045;28;1664;-67
2021/11/07 11:16:35;;;;;;;;;;;22.20;58.90;;;;;;5048071;28;1570;-67
2021/11/07 11:24:22;;;;;;;;;;;22.20;59.00;;;;;;5036373;28;1317;-68
2021/11/07 11:32:22;;;;;;;;;;;22.20;59.00;;;;;;5035162;28;1588;-69
2021/11/07 11:37:24;;;;;;;;;;;22.20;58.90;;;;;;5055372;28;1182;-67
2021/11/07 11:40:06;;;;;;;;;;;22.20;58.90;;;;;;5054131;28;1622;-67
2021/11/07 11:43:09;;;;;;;;;;;22.20;58.90;;;;;;5053938;28;1569;-67
2021/11/07 11:45:28;;;;;;;;;;;22.30;58.90;;;;;;5039648;28;1559;-66
2021/11/07 11:48:58;;;;;;;;;;;22.30;58.90;;;;;;5036638;28;1771;-67
2021/11/07 11:56:42;;;;;;;;;;;22.30;58.90;;;;;;5054906;28;1270;-67
2021/11/07 11:59:10;;;;;;;;;;;22.30;58.90;;;;;;5054001;28;1656;-67
2021/11/07 12:01:41;;;;;;;;;;;22.30;58.90;;;;;;5053323;28;1605;-67
2021/11/07 12:04:15;;;;;;;;;;;22.30;58.90;;;;;;5053665;28;1651;-66
2021/11/07 12:09:31;;;;;;;;;;;22.20;59.50;;;;;;5053320;28;1910;-67
2021/11/07 12:12:08;;;;;;;;;;;22.20;58.90;;;;;;5053105;28;1694;-67
2021/11/07 12:14:53;;;;;;;;;;;22.20;58.90;;;;;;5053671;28;1659;-67
2021/11/07 12:17:25;;;;;;;;;;;22.20;58.90;;;;;;5034469;28;1388;-67
2021/11/07 12:19:51;;;;;;;;;;;22.20;59.00;;;;;;5034592;28;1375;-67
2021/11/07 12:22:17;;;;;;;;;;;22.20;59.00;;;;;;5045293;28;1654;-67
2021/11/07 12:24:49;;;;;;;;;;;22.20;59.00;;;;;;5046376;28;1502;-67
2021/11/07 12:27:20;;;;;;;;;;;22.20;58.90;;;;;;5034363;28;1616;-67
2021/11/07 12:29:46;;;;;;;;;;;22.30;59.00;;;;;;5033128;28;1894;-67
2021/11/07 12:32:11;;;;;;;;;;;22.30;58.90;;;;;;5032759;28;1753;-67
2021/11/07 12:34:57;;;;;;;;;;;22.30;58.90;;;;;;5034072;28;1485;-67
2021/11/07 12:40:38;;;;;;;;;;;22.30;58.80;;;;;;5034111;28;1328;-67
2021/11/07 12:43:05;;;;;;;;;;;22.30;58.80;;;;;;5033736;28;1597;-67
2021/11/07 12:45:34;;;;;;;;;;;22.30;58.80;;;;;;5032167;28;1696;-67
2021/11/07 12:48:04;;;;;;;;;;;22.30;58.80;;;;;;5032662;28;1588;-67
2021/11/07 12:50:48;;;;;;;;;;;22.30;58.80;;;;;;5032805;28;1903;-66
2021/11/07 12:53:14;;;;;;;;;;;22.30;58.90;;;;;;5032730;28;1601;-67
2021/11/07 12:55:39;;;;;;;;;;;22.30;58.80;;;;;;5033618;28;1622;-66
2021/11/07 12:58:04;;;;;;;;;;;22.30;58.20;;;;;;5033727;28;1609;-66
2021/11/07 13:00:30;;;;;;;;;;;22.20;57.80;;;;;;5033414;28;1748;-67
2021/11/07 13:03:03;;;;;;;;;;;22.20;57.90;;;;;;5043072;28;1360;-66
2021/11/07 13:05:31;;;;;;;;;;;22.20;57.90;;;;;;5046152;28;1702;-65
2021/11/07 13:08:03;;;;;;;;;;;22.20;58.00;;;;;;5033475;28;996;-67
2021/11/07 13:13:14;;;;;;;;;;;22.20;58.20;;;;;;5033366;28;1312;-66
2021/11/07 13:26:57;;;;;;;;;;;22.20;58.50;;;;;;5051920;28;1616;-68
2021/11/07 13:29:38;;;;;;;;;;;22.20;58.50;;;;;;5038765;28;1902;-69
2021/11/07 13:32:18;;;;;;;;;;;22.20;58.60;;;;;;5031607;28;1669;-68
2021/11/07 13:34:52;;;;;;;;;;;22.20;58.60;;;;;;5033193;28;1452;-67
2021/11/07 13:37:18;;;;;;;;;;;22.20;58.70;;;;;;5045655;28;1126;-69
2021/11/07 13:39:44;;;;;;;;;;;22.10;58.70;;;;;;5033126;28;1426;-68
2021/11/07 13:42:12;;;;;;;;;;;22.10;58.70;;;;;;5036628;28;1700;-67
2021/11/07 13:44:44;;;;;;;;;;;22.10;58.70;;;;;;5053241;28;1336;-67
2021/11/07 13:47:10;;;;;;;;;;;22.10;58.80;;;;;;5052480;28;1599;-67
2021/11/07 13:49:44;;;;;;;;;;;22.10;58.80;;;;;;5057924;28;1903;-68
2021/11/07 13:52:10;;;;;;;;;;;22.10;58.80;;;;;;5042449;28;1370;-69
2021/11/07 13:54:38;;;;;;;;;;;22.10;58.90;;;;;;5050952;28;1108;-69
2021/11/07 13:57:04;;;;;;;;;;;22.10;58.90;;;;;;5047528;28;1283;-68
2021/11/07 13:59:33;;;;;;;;;;;22.10;59.00;;;;;;5051209;28;1578;-70
2021/11/07 14:01:59;;;;;;;;;;;22.00;59.00;;;;;;5046010;28;1554;-70
2021/11/07 14:04:37;;;;;;;;;;;22.00;59.00;;;;;;5049452;28;1279;-70
2021/11/07 14:07:10;;;;;;;;;;;22.00;59.00;;;;;;5046005;28;1323;-70
2021/11/07 14:09:36;;;;;;;;;;;22.00;59.10;;;;;;5041273;28;1906;-69
2021/11/07 14:12:02;;;;;;;;;;;22.00;59.10;;;;;;5031814;28;1376;-70
2021/11/07 14:14:28;;;;;;;;;;;22.00;59.10;;;;;;5031761;28;1347;-70
2021/11/07 14:16:59;;;;;;;;;;;22.00;59.20;;;;;;5045185;28;1377;-69
2021/11/07 14:19:25;;;;;;;;;;;22.00;59.20;;;;;;5032199;28;1230;-67
2021/11/07 14:21:56;;;;;;;;;;;22.00;59.30;;;;;;5045657;28;1864;-68
2021/11/07 14:24:26;;;;;;;;;;;22.00;59.30;;;;;;5049934;28;1090;-70
2021/11/07 14:26:55;;;;;;;;;;;21.90;59.20;;;;;;5042687;28;1275;-71
2021/11/07 14:32:25;;;;;;;;;;;21.90;59.30;;;;;;5050932;28;1932;-68
2021/11/07 14:40:16;;;;;;;;;;;21.90;59.40;;;;;;5038908;28;1208;-68
2021/11/07 14:45:46;;;;;;;;;;;21.90;59.50;;;;;;5032237;28;1392;-69
2021/11/07 14:53:33;;;;;;;;;;;21.90;59.50;;;;;;5050861;28;1369;-67
2021/11/07 15:03:58;;;;;;;;;;;21.90;59.50;;;;;;5050918;28;1334;-68
2021/11/07 15:08:59;;;;;;;;;;;21.90;59.50;;;;;;5054505;28;1353;-67
2021/11/07 15:11:51;;;;;;;;;;;21.90;59.50;;;;;;5055031;28;1969;-68
2021/11/07 15:14:30;;;;;;;;;;;21.80;59.50;;;;;;5053733;28;1362;-68
2021/11/07 15:17:08;;;;;;;;;;;21.90;59.50;;;;;;5049425;28;1331;-68
2021/11/07 15:19:39;;;;;;;;;;;21.90;59.50;;;;;;5047267;28;1270;-68
2021/11/07 15:22:10;;;;;;;;;;;21.80;59.50;;;;;;5047333;28;1278;-68
2021/11/07 15:24:39;;;;;;;;;;;21.80;59.50;;;;;;5035213;28;1171;-69
2021/11/07 15:27:06;;;;;;;;;;;21.80;59.50;;;;;;5034933;28;1356;-68
2021/11/07 15:29:46;;;;;;;;;;;21.80;59.50;;;;;;5034699;28;1960;-66
2021/11/07 15:32:12;;;;;;;;;;;21.90;59.60;;;;;;5034454;28;1232;-66
2021/11/07 15:34:39;;;;;;;;;;;21.80;59.80;;;;;;5034759;28;1411;-68
2021/11/07 15:37:05;;;;;;;;;;;21.80;59.60;;;;;;5045632;28;1464;-68
2021/11/07 15:39:32;;;;;;;;;;;21.80;59.60;;;;;;5053502;28;1326;-68
2021/11/07 15:42:02;;;;;;;;;;;21.80;59.60;;;;;;5043291;28;841;-68
2021/11/07 15:44:28;;;;;;;;;;;21.80;59.60;;;;;;5064984;28;1309;-67
2021/11/07 15:46:58;;;;;;;;;;;21.80;59.60;;;;;;5034535;28;1298;-69
2021/11/07 15:49:23;;;;;;;;;;;21.80;59.60;;;;;;5034358;28;1890;-69
2021/11/07 15:51:57;;;;;;;;;;;21.80;59.60;;;;;;5034401;28;1321;-69
2021/11/07 15:54:27;;;;;;;;;;;21.80;59.60;;;;;;5036705;28;1408;-68
2021/11/07 15:57:09;;;;;;;;;;;21.80;59.60;;;;;;5048055;28;1398;-68
2021/11/07 15:59:57;;;;;;;;;;;21.80;59.70;;;;;;5053549;28;1227;-69
2021/11/07 16:02:36;;;;;;;;;;;21.80;59.70;;;;;;5053484;28;1428;-70
2021/11/07 16:07:39;;;;;;;;;;;21.80;59.70;;;;;;5045441;28;1223;-68
2021/11/07 16:10:19;;;;;;;;;;;21.70;59.60;;;;;;5026831;28;1910;-69
2021/11/07 16:12:51;;;;;;;;;;;21.70;59.60;;;;;;5046390;28;1189;-68
2021/11/07 16:15:45;;;;;;;;;;;21.80;59.70;;;;;;5048633;28;1315;-68
2021/11/07 16:18:04;;;;;;;;;;;21.80;59.70;;;;;;5049747;28;1653;-66
2021/11/07 16:20:31;;;;;;;;;;;21.80;59.70;;;;;;5046202;28;1248;-67
2021/11/07 16:23:01;;;;;;;;;;;21.70;59.70;;;;;;5043117;28;1202;-67
2021/11/07 16:25:27;;;;;;;;;;;21.80;59.80;;;;;;5032869;28;1324;-70
2021/11/07 16:27:57;;;;;;;;;;;21.70;59.70;;;;;;5040131;28;1206;-70
2021/11/07 16:30:23;;;;;;;;;;;21.70;59.70;;;;;;5049297;28;1957;-71
2021/11/07 16:33:09;;;;;;;;;;;21.70;59.70;;;;;;5036516;28;1280;-70
2021/11/07 16:40:55;;;;;;;;;;;21.70;59.70;;;;;;5032531;28;1261;-67
2021/11/07 16:43:21;;;;;;;;;;;21.70;59.70;;;;;;5029022;28;1285;-67
2021/11/07 16:45:47;;;;;;;;;;;21.70;59.70;;;;;;5033554;28;1481;-67
2021/11/07 16:48:15;;;;;;;;;;;21.70;59.70;;;;;;5033683;28;1336;-67
2021/11/07 16:50:49;;;;;;;;;;;21.70;59.70;;;;;;5033353;28;1898;-66
2021/11/07 16:53:23;;;;;;;;;;;21.70;59.80;;;;;;5032703;28;1332;-66
2021/11/07 16:55:53;;;;;;;;;;;21.70;59.80;;;;;;5032577;28;1317;-67
2021/11/07 16:58:24;;;;;;;;;;;21.70;59.80;;;;;;5032517;28;1282;-67
2021/11/07 17:00:52;;;;;;;;;;;21.70;59.80;;;;;;5033741;28;1353;-66
2021/11/07 17:03:28;;;;;;;;;;;21.70;59.90;;;;;;5033162;28;1368;-66
2021/11/07 17:06:21;;;;;;;;;;;21.70;59.90;;;;;;5040356;28;1320;-67
2021/11/07 17:09:13;;;;;;;;;;;21.70;59.90;;;;;;5053423;28;1352;-67